sensor_id;sensor_type;location;lat;lon;timestamp;P1;durP1;ratioP1;P2;durP2;ratioP2
43098;SDS011;28715;51.988;6.020;2022-12-18T00:01:28;121.88;;;42.35;;
43098;SDS011;28715;51.988;6.020;2022-12-18T00:03:58;130.00;;;43.83;;
43098;SDS011;28715;51.988;6.020;2022-12-18T00:06:26;124.35;;;44.90;;
43098;SDS011;28715;51.988;6.020;2022-12-18T00:08:54;122.75;;;43.50;;
43098;SDS011;28715;51.988;6.020;2022-12-18T00:11:21;118.88;;;41.10;;
43098;SDS011;28715;51.988;6.020;2022-12-18T00:13:50;121.28;;;40.92;;
43098;SDS011;28715;51.988;6.020;2022-12-18T00:16:17;115.03;;;42.80;;
43098;SDS011;28715;51.988;6.020;2022-12-18T00:18:45;109.32;;;42.15;;
43098;SDS011;28715;51.988;6.020;2022-12-18T00:21:11;111.45;;;41.72;;
43098;SDS011;28715;51.988;6.020;2022-12-18T00:23:38;110.32;;;42.63;;
43098;SDS011;28715;51.988;6.020;2022-12-18T00:26:06;124.53;;;44.65;;
43098;SDS011;28715;51.988;6.020;2022-12-18T00:28:34;113.65;;;42.97;;
43098;SDS011;28715;51.988;6.020;2022-12-18T00:33:26;113.53;;;41.77;;
43098;SDS011;28715;51.988;6.020;2022-12-18T00:35:52;105.10;;;40.10;;
43098;SDS011;28715;51.988;6.020;2022-12-18T00:38:17;117.70;;;42.00;;
43098;SDS011;28715;51.988;6.020;2022-12-18T00:40:43;117.40;;;42.53;;
43098;SDS011;28715;51.988;6.020;2022-12-18T00:43:09;112.53;;;41.00;;
43098;SDS011;28715;51.988;6.020;2022-12-18T00:45:34;109.50;;;39.63;;
43098;SDS011;28715;51.988;6.020;2022-12-18T00:48:00;106.53;;;40.70;;
43098;SDS011;28715;51.988;6.020;2022-12-18T00:50:26;110.43;;;39.97;;
43098;SDS011;28715;51.988;6.020;2022-12-18T00:52:52;113.20;;;40.27;;
43098;SDS011;28715;51.988;6.020;2022-12-18T00:55:17;109.00;;;40.40;;
43098;SDS011;28715;51.988;6.020;2022-12-18T00:57:43;108.57;;;39.93;;
43098;SDS011;28715;51.988;6.020;2022-12-18T01:00:13;97.67;;;38.50;;
43098;SDS011;28715;51.988;6.020;2022-12-18T01:02:40;103.65;;;39.05;;
43098;SDS011;28715;51.988;6.020;2022-12-18T01:05:06;108.95;;;39.15;;
43098;SDS011;28715;51.988;6.020;2022-12-18T01:07:32;105.78;;;38.53;;
43098;SDS011;28715;51.988;6.020;2022-12-18T01:09:58;117.30;;;41.47;;
43098;SDS011;28715;51.988;6.020;2022-12-18T01:12:24;117.90;;;43.93;;
43098;SDS011;28715;51.988;6.020;2022-12-18T01:14:49;119.10;;;41.57;;
43098;SDS011;28715;51.988;6.020;2022-12-18T01:17:15;136.77;;;47.47;;
43098;SDS011;28715;51.988;6.020;2022-12-18T01:19:40;117.17;;;43.80;;
43098;SDS011;28715;51.988;6.020;2022-12-18T01:22:06;116.35;;;42.05;;
43098;SDS011;28715;51.988;6.020;2022-12-18T01:24:32;115.80;;;42.00;;
43098;SDS011;28715;51.988;6.020;2022-12-18T01:26:57;111.13;;;40.03;;
43098;SDS011;28715;51.988;6.020;2022-12-18T01:29:23;102.07;;;39.77;;
43098;SDS011;28715;51.988;6.020;2022-12-18T01:31:49;112.67;;;42.27;;
43098;SDS011;28715;51.988;6.020;2022-12-18T01:34:14;118.57;;;42.27;;
43098;SDS011;28715;51.988;6.020;2022-12-18T01:36:40;109.80;;;41.13;;
43098;SDS011;28715;51.988;6.020;2022-12-18T01:39:06;103.10;;;40.03;;
43098;SDS011;28715;51.988;6.020;2022-12-18T01:41:35;113.97;;;41.83;;
43098;SDS011;28715;51.988;6.020;2022-12-18T01:47:21;101.90;;;39.47;;
43098;SDS011;28715;51.988;6.020;2022-12-18T01:49:54;106.85;;;40.03;;
43098;SDS011;28715;51.988;6.020;2022-12-18T01:52:20;100.00;;;37.42;;
43098;SDS011;28715;51.988;6.020;2022-12-18T01:54:47;101.32;;;38.17;;
43098;SDS011;28715;51.988;6.020;2022-12-18T01:57:15;94.63;;;37.42;;
43098;SDS011;28715;51.988;6.020;2022-12-18T01:59:41;97.80;;;37.45;;
43098;SDS011;28715;51.988;6.020;2022-12-18T02:02:10;98.50;;;37.05;;
43098;SDS011;28715;51.988;6.020;2022-12-18T02:04:36;103.63;;;36.97;;
43098;SDS011;28715;51.988;6.020;2022-12-18T02:07:17;96.60;;;38.23;;
43098;SDS011;28715;51.988;6.020;2022-12-18T02:12:48;90.78;;;36.10;;
43098;SDS011;28715;51.988;6.020;2022-12-18T02:18:08;86.85;;;33.58;;
43098;SDS011;28715;51.988;6.020;2022-12-18T02:20:43;90.28;;;34.83;;
43098;SDS011;28715;51.988;6.020;2022-12-18T02:28:37;96.10;;;35.90;;
43098;SDS011;28715;51.988;6.020;2022-12-18T02:31:24;101.57;;;35.17;;
43098;SDS011;28715;51.988;6.020;2022-12-18T02:33:58;92.32;;;36.70;;
43098;SDS011;28715;51.988;6.020;2022-12-18T02:36:27;90.63;;;34.65;;
43098;SDS011;28715;51.988;6.020;2022-12-18T02:38:54;87.13;;;33.95;;
43098;SDS011;28715;51.988;6.020;2022-12-18T02:41:24;86.32;;;34.33;;
43098;SDS011;28715;51.988;6.020;2022-12-18T02:43:58;85.90;;;31.67;;
43098;SDS011;28715;51.988;6.020;2022-12-18T02:46:36;77.57;;;31.90;;
43098;SDS011;28715;51.988;6.020;2022-12-18T02:49:11;83.50;;;31.23;;
43098;SDS011;28715;51.988;6.020;2022-12-18T02:51:53;79.53;;;31.00;;
43098;SDS011;28715;51.988;6.020;2022-12-18T02:59:54;73.75;;;29.92;;
43098;SDS011;28715;51.988;6.020;2022-12-18T03:02:39;75.28;;;30.35;;
43098;SDS011;28715;51.988;6.020;2022-12-18T03:05:30;73.38;;;30.55;;
43098;SDS011;28715;51.988;6.020;2022-12-18T03:08:03;75.38;;;30.50;;
43098;SDS011;28715;51.988;6.020;2022-12-18T03:10:39;69.18;;;29.10;;
43098;SDS011;28715;51.988;6.020;2022-12-18T03:13:10;71.18;;;29.73;;
43098;SDS011;28715;51.988;6.020;2022-12-18T03:15:47;67.22;;;28.48;;
43098;SDS011;28715;51.988;6.020;2022-12-18T03:18:17;71.22;;;29.45;;
43098;SDS011;28715;51.988;6.020;2022-12-18T03:20:48;68.07;;;28.63;;
43098;SDS011;28715;51.988;6.020;2022-12-18T03:23:18;78.90;;;30.25;;
43098;SDS011;28715;51.988;6.020;2022-12-18T03:25:47;69.30;;;28.70;;
43098;SDS011;28715;51.988;6.020;2022-12-18T03:28:20;69.50;;;28.45;;
43098;SDS011;28715;51.988;6.020;2022-12-18T03:30:47;64.07;;;27.90;;
43098;SDS011;28715;51.988;6.020;2022-12-18T03:33:19;71.90;;;28.40;;
43098;SDS011;28715;51.988;6.020;2022-12-18T03:35:50;65.68;;;27.67;;
43098;SDS011;28715;51.988;6.020;2022-12-18T03:38:16;67.97;;;28.67;;
43098;SDS011;28715;51.988;6.020;2022-12-18T03:43:30;69.38;;;28.48;;
43098;SDS011;28715;51.988;6.020;2022-12-18T03:46:06;63.05;;;27.70;;
43098;SDS011;28715;51.988;6.020;2022-12-18T03:48:42;64.82;;;28.33;;
43098;SDS011;28715;51.988;6.020;2022-12-18T03:51:35;63.38;;;26.02;;
43098;SDS011;28715;51.988;6.020;2022-12-18T03:54:06;63.05;;;25.85;;
43098;SDS011;28715;51.988;6.020;2022-12-18T03:56:36;63.05;;;24.90;;
43098;SDS011;28715;51.988;6.020;2022-12-18T03:59:07;56.13;;;25.55;;
43098;SDS011;28715;51.988;6.020;2022-12-18T04:01:36;53.63;;;25.17;;
43098;SDS011;28715;51.988;6.020;2022-12-18T04:04:06;58.63;;;24.30;;
43098;SDS011;28715;51.988;6.020;2022-12-18T04:06:36;60.20;;;24.88;;
43098;SDS011;28715;51.988;6.020;2022-12-18T04:09:03;54.50;;;24.63;;
43098;SDS011;28715;51.988;6.020;2022-12-18T04:11:29;60.85;;;25.23;;
43098;SDS011;28715;51.988;6.020;2022-12-18T04:13:56;54.87;;;25.03;;
43098;SDS011;28715;51.988;6.020;2022-12-18T04:16:23;53.83;;;23.77;;
43098;SDS011;28715;51.988;6.020;2022-12-18T04:18:49;53.72;;;24.85;;
43098;SDS011;28715;51.988;6.020;2022-12-18T04:21:15;56.57;;;25.63;;
43098;SDS011;28715;51.988;6.020;2022-12-18T04:23:41;54.87;;;25.07;;
43098;SDS011;28715;51.988;6.020;2022-12-18T04:26:06;54.80;;;24.73;;
43098;SDS011;28715;51.988;6.020;2022-12-18T04:28:32;49.80;;;23.77;;
43098;SDS011;28715;51.988;6.020;2022-12-18T04:30:57;51.73;;;23.30;;
43098;SDS011;28715;51.988;6.020;2022-12-18T04:33:23;49.23;;;23.57;;
43098;SDS011;28715;51.988;6.020;2022-12-18T04:35:48;48.10;;;22.17;;
43098;SDS011;28715;51.988;6.020;2022-12-18T04:38:14;45.17;;;21.63;;
43098;SDS011;28715;51.988;6.020;2022-12-18T04:40:39;50.10;;;22.40;;
43098;SDS011;28715;51.988;6.020;2022-12-18T04:43:05;50.20;;;23.37;;
43098;SDS011;28715;51.988;6.020;2022-12-18T04:45:31;50.67;;;23.17;;
43098;SDS011;28715;51.988;6.020;2022-12-18T04:48:00;48.38;;;22.02;;
43098;SDS011;28715;51.988;6.020;2022-12-18T04:52:52;57.97;;;25.07;;
43098;SDS011;28715;51.988;6.020;2022-12-18T04:55:17;47.83;;;22.05;;
43098;SDS011;28715;51.988;6.020;2022-12-18T04:57:43;48.10;;;22.60;;
43098;SDS011;28715;51.988;6.020;2022-12-18T05:00:09;52.50;;;23.13;;
43098;SDS011;28715;51.988;6.020;2022-12-18T05:02:35;51.28;;;23.50;;
43098;SDS011;28715;51.988;6.020;2022-12-18T05:05:00;48.20;;;21.27;;
43098;SDS011;28715;51.988;6.020;2022-12-18T05:07:26;54.00;;;23.63;;
43098;SDS011;28715;51.988;6.020;2022-12-18T05:09:51;50.40;;;22.67;;
43098;SDS011;28715;51.988;6.020;2022-12-18T05:12:17;49.43;;;22.87;;
43098;SDS011;28715;51.988;6.020;2022-12-18T05:14:42;48.13;;;22.83;;
43098;SDS011;28715;51.988;6.020;2022-12-18T05:17:08;47.37;;;22.53;;
43098;SDS011;28715;51.988;6.020;2022-12-18T05:19:33;46.80;;;22.40;;
43098;SDS011;28715;51.988;6.020;2022-12-18T05:21:59;46.73;;;21.83;;
43098;SDS011;28715;51.988;6.020;2022-12-18T05:24:26;52.63;;;23.70;;
43098;SDS011;28715;51.988;6.020;2022-12-18T05:26:51;44.83;;;21.70;;
43098;SDS011;28715;51.988;6.020;2022-12-18T05:29:17;48.13;;;21.70;;
43098;SDS011;28715;51.988;6.020;2022-12-18T05:31:43;47.43;;;21.13;;
43098;SDS011;28715;51.988;6.020;2022-12-18T05:34:08;50.27;;;24.17;;
43098;SDS011;28715;51.988;6.020;2022-12-18T05:36:34;48.27;;;21.50;;
43098;SDS011;28715;51.988;6.020;2022-12-18T05:38:59;51.93;;;22.57;;
43098;SDS011;28715;51.988;6.020;2022-12-18T05:41:25;49.30;;;22.47;;
43098;SDS011;28715;51.988;6.020;2022-12-18T05:43:51;51.42;;;23.60;;
43098;SDS011;28715;51.988;6.020;2022-12-18T05:46:17;44.57;;;22.37;;
43098;SDS011;28715;51.988;6.020;2022-12-18T05:48:43;48.27;;;23.20;;
43098;SDS011;28715;51.988;6.020;2022-12-18T05:51:11;51.20;;;21.98;;
43098;SDS011;28715;51.988;6.020;2022-12-18T05:53:39;48.33;;;21.70;;
43098;SDS011;28715;51.988;6.020;2022-12-18T05:56:06;47.95;;;22.58;;
43098;SDS011;28715;51.988;6.020;2022-12-18T05:58:33;43.63;;;21.83;;
43098;SDS011;28715;51.988;6.020;2022-12-18T06:01:05;49.37;;;21.83;;
43098;SDS011;28715;51.988;6.020;2022-12-18T06:03:42;47.30;;;21.85;;
43098;SDS011;28715;51.988;6.020;2022-12-18T06:06:21;46.63;;;21.92;;
43098;SDS011;28715;51.988;6.020;2022-12-18T06:08:49;45.47;;;21.85;;
43098;SDS011;28715;51.988;6.020;2022-12-18T06:11:19;43.13;;;20.17;;
43098;SDS011;28715;51.988;6.020;2022-12-18T06:13:49;44.20;;;21.98;;
43098;SDS011;28715;51.988;6.020;2022-12-18T06:16:15;49.63;;;22.95;;
43098;SDS011;28715;51.988;6.020;2022-12-18T06:18:59;45.47;;;22.20;;
43098;SDS011;28715;51.988;6.020;2022-12-18T06:21:25;38.85;;;19.70;;
43098;SDS011;28715;51.988;6.020;2022-12-18T06:23:51;50.45;;;24.65;;
43098;SDS011;28715;51.988;6.020;2022-12-18T06:26:17;50.63;;;22.90;;
43098;SDS011;28715;51.988;6.020;2022-12-18T06:28:43;52.67;;;23.30;;
43098;SDS011;28715;51.988;6.020;2022-12-18T06:31:09;47.95;;;22.88;;
43098;SDS011;28715;51.988;6.020;2022-12-18T06:33:35;45.63;;;22.95;;
43098;SDS011;28715;51.988;6.020;2022-12-18T06:36:09;48.08;;;21.83;;
43098;SDS011;28715;51.988;6.020;2022-12-18T06:38:38;51.08;;;22.95;;
43098;SDS011;28715;51.988;6.020;2022-12-18T06:41:15;51.03;;;23.85;;
43098;SDS011;28715;51.988;6.020;2022-12-18T06:43:42;47.15;;;22.13;;
43098;SDS011;28715;51.988;6.020;2022-12-18T06:46:08;43.33;;;20.27;;
43098;SDS011;28715;51.988;6.020;2022-12-18T06:48:34;46.67;;;21.70;;
43098;SDS011;28715;51.988;6.020;2022-12-18T06:51:00;42.85;;;20.67;;
43098;SDS011;28715;51.988;6.020;2022-12-18T06:53:26;46.67;;;22.02;;
43098;SDS011;28715;51.988;6.020;2022-12-18T06:55:52;42.53;;;21.27;;
43098;SDS011;28715;51.988;6.020;2022-12-18T06:58:18;42.53;;;20.97;;
43098;SDS011;28715;51.988;6.020;2022-12-18T07:00:43;45.07;;;20.73;;
43098;SDS011;28715;51.988;6.020;2022-12-18T07:03:10;44.33;;;21.70;;
43098;SDS011;28715;51.988;6.020;2022-12-18T07:05:39;43.58;;;20.38;;
43098;SDS011;28715;51.988;6.020;2022-12-18T07:08:05;46.42;;;21.83;;
43098;SDS011;28715;51.988;6.020;2022-12-18T07:10:31;47.87;;;22.30;;
43098;SDS011;28715;51.988;6.020;2022-12-18T07:12:57;44.20;;;21.90;;
43098;SDS011;28715;51.988;6.020;2022-12-18T07:15:22;47.33;;;21.80;;
43098;SDS011;28715;51.988;6.020;2022-12-18T07:17:48;50.57;;;22.77;;
43098;SDS011;28715;51.988;6.020;2022-12-18T07:20:16;45.85;;;20.60;;
43098;SDS011;28715;51.988;6.020;2022-12-18T07:22:42;43.17;;;20.73;;
43098;SDS011;28715;51.988;6.020;2022-12-18T07:25:07;46.03;;;21.07;;
43098;SDS011;28715;51.988;6.020;2022-12-18T07:27:33;42.83;;;19.87;;
43098;SDS011;28715;51.988;6.020;2022-12-18T07:29:59;42.67;;;20.77;;
43098;SDS011;28715;51.988;6.020;2022-12-18T07:32:24;49.67;;;22.13;;
43098;SDS011;28715;51.988;6.020;2022-12-18T07:34:50;44.60;;;21.73;;
43098;SDS011;28715;51.988;6.020;2022-12-18T07:37:15;45.67;;;21.00;;
43098;SDS011;28715;51.988;6.020;2022-12-18T07:39:41;44.53;;;21.10;;
43098;SDS011;28715;51.988;6.020;2022-12-18T07:42:06;44.40;;;21.30;;
43098;SDS011;28715;51.988;6.020;2022-12-18T07:44:50;46.10;;;20.58;;
43098;SDS011;28715;51.988;6.020;2022-12-18T07:47:16;47.50;;;21.00;;
43098;SDS011;28715;51.988;6.020;2022-12-18T07:49:41;42.13;;;20.57;;
43098;SDS011;28715;51.988;6.020;2022-12-18T07:52:07;40.40;;;20.27;;
43098;SDS011;28715;51.988;6.020;2022-12-18T07:54:34;48.13;;;21.33;;
43098;SDS011;28715;51.988;6.020;2022-12-18T07:56:59;47.57;;;19.40;;
43098;SDS011;28715;51.988;6.020;2022-12-18T07:59:25;43.03;;;19.23;;
43098;SDS011;28715;51.988;6.020;2022-12-18T08:01:51;43.87;;;19.70;;
43098;SDS011;28715;51.988;6.020;2022-12-18T08:04:16;39.83;;;20.73;;
43098;SDS011;28715;51.988;6.020;2022-12-18T08:06:42;40.23;;;20.13;;
43098;SDS011;28715;51.988;6.020;2022-12-18T08:09:09;40.67;;;19.53;;
43098;SDS011;28715;51.988;6.020;2022-12-18T08:11:35;43.65;;;19.95;;
43098;SDS011;28715;51.988;6.020;2022-12-18T08:14:00;45.97;;;20.50;;
43098;SDS011;28715;51.988;6.020;2022-12-18T08:16:26;43.40;;;19.60;;
43098;SDS011;28715;51.988;6.020;2022-12-18T08:18:52;42.43;;;20.33;;
43098;SDS011;28715;51.988;6.020;2022-12-18T08:21:28;44.10;;;20.55;;
43098;SDS011;28715;51.988;6.020;2022-12-18T08:23:57;44.38;;;20.17;;
43098;SDS011;28715;51.988;6.020;2022-12-18T08:26:24;41.85;;;20.02;;
43098;SDS011;28715;51.988;6.020;2022-12-18T08:28:53;42.90;;;21.13;;
43098;SDS011;28715;51.988;6.020;2022-12-18T08:31:23;42.78;;;19.80;;
43098;SDS011;28715;51.988;6.020;2022-12-18T08:33:52;38.85;;;17.55;;
43098;SDS011;28715;51.988;6.020;2022-12-18T08:36:18;35.60;;;15.88;;
43098;SDS011;28715;51.988;6.020;2022-12-18T08:38:45;33.40;;;14.30;;
43098;SDS011;28715;51.988;6.020;2022-12-18T08:41:11;53.75;;;29.02;;
43098;SDS011;28715;51.988;6.020;2022-12-18T08:43:39;27.52;;;14.27;;
43098;SDS011;28715;51.988;6.020;2022-12-18T08:46:25;26.15;;;13.02;;
43098;SDS011;28715;51.988;6.020;2022-12-18T08:48:52;27.15;;;13.13;;
43098;SDS011;28715;51.988;6.020;2022-12-18T08:51:19;29.00;;;13.93;;
43098;SDS011;28715;51.988;6.020;2022-12-18T08:53:45;25.58;;;13.00;;
43098;SDS011;28715;51.988;6.020;2022-12-18T08:56:11;26.52;;;12.30;;
43098;SDS011;28715;51.988;6.020;2022-12-18T08:58:37;27.15;;;12.60;;
43098;SDS011;28715;51.988;6.020;2022-12-18T09:01:03;27.57;;;13.60;;
43098;SDS011;28715;51.988;6.020;2022-12-18T09:03:30;24.25;;;11.95;;
43098;SDS011;28715;51.988;6.020;2022-12-18T09:05:56;23.97;;;11.60;;
43098;SDS011;28715;51.988;6.020;2022-12-18T09:08:21;24.40;;;12.80;;
43098;SDS011;28715;51.988;6.020;2022-12-18T09:10:48;27.30;;;12.60;;
43098;SDS011;28715;51.988;6.020;2022-12-18T09:13:14;24.33;;;13.07;;
43098;SDS011;28715;51.988;6.020;2022-12-18T09:15:41;28.88;;;14.23;;
43098;SDS011;28715;51.988;6.020;2022-12-18T09:18:08;25.85;;;13.55;;
43098;SDS011;28715;51.988;6.020;2022-12-18T09:20:35;27.45;;;13.85;;
43098;SDS011;28715;51.988;6.020;2022-12-18T09:23:01;27.77;;;13.85;;
43098;SDS011;28715;51.988;6.020;2022-12-18T09:25:28;25.85;;;12.27;;
43098;SDS011;28715;51.988;6.020;2022-12-18T09:27:58;30.20;;;13.65;;
43098;SDS011;28715;51.988;6.020;2022-12-18T09:30:27;22.60;;;10.95;;
43098;SDS011;28715;51.988;6.020;2022-12-18T09:32:52;25.53;;;12.33;;
43098;SDS011;28715;51.988;6.020;2022-12-18T09:35:18;32.43;;;18.63;;
43098;SDS011;28715;51.988;6.020;2022-12-18T09:37:43;29.10;;;15.63;;
43098;SDS011;28715;51.988;6.020;2022-12-18T09:40:13;25.37;;;13.23;;
43098;SDS011;28715;51.988;6.020;2022-12-18T09:42:45;28.20;;;14.73;;
43098;SDS011;28715;51.988;6.020;2022-12-18T09:45:15;25.38;;;13.38;;
43098;SDS011;28715;51.988;6.020;2022-12-18T09:47:42;25.48;;;12.63;;
43098;SDS011;28715;51.988;6.020;2022-12-18T09:52:56;21.20;;;11.18;;
43098;SDS011;28715;51.988;6.020;2022-12-18T09:55:37;25.23;;;12.85;;
43098;SDS011;28715;51.988;6.020;2022-12-18T09:58:16;20.92;;;10.65;;
43098;SDS011;28715;51.988;6.020;2022-12-18T10:00:51;21.02;;;11.25;;
43098;SDS011;28715;51.988;6.020;2022-12-18T10:03:18;21.30;;;11.43;;
43098;SDS011;28715;51.988;6.020;2022-12-18T10:11:21;24.33;;;11.85;;
43098;SDS011;28715;51.988;6.020;2022-12-18T10:16:35;27.65;;;11.73;;
43098;SDS011;28715;51.988;6.020;2022-12-18T10:21:50;22.73;;;12.32;;
43098;SDS011;28715;51.988;6.020;2022-12-18T10:26:48;25.83;;;12.87;;
43098;SDS011;28715;51.988;6.020;2022-12-18T10:29:14;24.80;;;12.00;;
43098;SDS011;28715;51.988;6.020;2022-12-18T10:31:41;20.80;;;10.25;;
43098;SDS011;28715;51.988;6.020;2022-12-18T10:34:09;21.83;;;11.20;;
43098;SDS011;28715;51.988;6.020;2022-12-18T10:36:35;22.75;;;11.65;;
43098;SDS011;28715;51.988;6.020;2022-12-18T10:39:18;19.63;;;11.00;;
43098;SDS011;28715;51.988;6.020;2022-12-18T10:41:47;24.85;;;12.05;;
43098;SDS011;28715;51.988;6.020;2022-12-18T10:44:17;21.60;;;11.27;;
43098;SDS011;28715;51.988;6.020;2022-12-18T10:46:45;23.10;;;11.23;;
43098;SDS011;28715;51.988;6.020;2022-12-18T10:49:21;21.50;;;10.85;;
43098;SDS011;28715;51.988;6.020;2022-12-18T10:51:51;22.77;;;11.70;;
43098;SDS011;28715;51.988;6.020;2022-12-18T10:54:52;29.70;;;14.85;;
43098;SDS011;28715;51.988;6.020;2022-12-18T10:57:37;22.92;;;13.00;;
43098;SDS011;28715;51.988;6.020;2022-12-18T11:00:20;22.65;;;11.73;;
43098;SDS011;28715;51.988;6.020;2022-12-18T11:02:53;24.38;;;12.68;;
43098;SDS011;28715;51.988;6.020;2022-12-18T11:05:27;24.40;;;12.73;;
43098;SDS011;28715;51.988;6.020;2022-12-18T11:07:55;24.10;;;13.90;;
43098;SDS011;28715;51.988;6.020;2022-12-18T11:10:22;21.98;;;12.13;;
43098;SDS011;28715;51.988;6.020;2022-12-18T11:12:53;22.38;;;12.23;;
43098;SDS011;28715;51.988;6.020;2022-12-18T11:15:19;24.23;;;13.70;;
43098;SDS011;28715;51.988;6.020;2022-12-18T11:17:55;20.58;;;11.60;;
43098;SDS011;28715;51.988;6.020;2022-12-18T11:20:23;21.80;;;11.17;;
43098;SDS011;28715;51.988;6.020;2022-12-18T11:23:03;21.88;;;12.10;;
43098;SDS011;28715;51.988;6.020;2022-12-18T11:25:35;20.88;;;10.77;;
43098;SDS011;28715;51.988;6.020;2022-12-18T11:28:03;20.85;;;10.32;;
43098;SDS011;28715;51.988;6.020;2022-12-18T11:30:34;21.95;;;11.52;;
43098;SDS011;28715;51.988;6.020;2022-12-18T11:43:39;21.90;;;11.52;;
43098;SDS011;28715;51.988;6.020;2022-12-18T11:46:13;21.77;;;11.15;;
43098;SDS011;28715;51.988;6.020;2022-12-18T11:48:44;23.58;;;10.93;;
43098;SDS011;28715;51.988;6.020;2022-12-18T11:51:28;20.20;;;11.07;;
43098;SDS011;28715;51.988;6.020;2022-12-18T11:53:58;24.40;;;12.55;;
43098;SDS011;28715;51.988;6.020;2022-12-18T11:56:27;26.83;;;14.02;;
43098;SDS011;28715;51.988;6.020;2022-12-18T11:59:01;21.85;;;12.32;;
43098;SDS011;28715;51.988;6.020;2022-12-18T12:01:51;21.60;;;12.15;;
43098;SDS011;28715;51.988;6.020;2022-12-18T12:09:49;22.33;;;12.25;;
43098;SDS011;28715;51.988;6.020;2022-12-18T12:15:34;23.67;;;13.65;;
43098;SDS011;28715;51.988;6.020;2022-12-18T12:29:58;22.67;;;11.40;;
43098;SDS011;28715;51.988;6.020;2022-12-18T12:40:37;22.42;;;11.82;;
43098;SDS011;28715;51.988;6.020;2022-12-18T12:43:22;21.33;;;11.88;;
43098;SDS011;28715;51.988;6.020;2022-12-18T12:46:08;24.08;;;12.10;;
43098;SDS011;28715;51.988;6.020;2022-12-18T12:48:46;21.33;;;11.63;;
43098;SDS011;28715;51.988;6.020;2022-12-18T12:51:16;21.70;;;10.18;;
43098;SDS011;28715;51.988;6.020;2022-12-18T12:53:44;21.08;;;10.55;;
43098;SDS011;28715;51.988;6.020;2022-12-18T12:56:11;21.53;;;11.80;;
43098;SDS011;28715;51.988;6.020;2022-12-18T12:58:43;22.33;;;11.68;;
43098;SDS011;28715;51.988;6.020;2022-12-18T13:07:10;23.27;;;11.77;;
43098;SDS011;28715;51.988;6.020;2022-12-18T13:13:17;21.58;;;11.25;;
43098;SDS011;28715;51.988;6.020;2022-12-18T13:15:38;20.40;;;11.70;;
43098;SDS011;28715;51.988;6.020;2022-12-18T13:20:38;23.83;;;12.57;;
43098;SDS011;28715;51.988;6.020;2022-12-18T13:25:54;21.90;;;12.35;;
43098;SDS011;28715;51.988;6.020;2022-12-18T13:28:49;25.20;;;11.85;;
43098;SDS011;28715;51.988;6.020;2022-12-18T13:36:45;23.60;;;12.55;;
43098;SDS011;28715;51.988;6.020;2022-12-18T13:41:44;23.38;;;11.85;;
43098;SDS011;28715;51.988;6.020;2022-12-18T13:47:00;24.85;;;13.25;;
43098;SDS011;28715;51.988;6.020;2022-12-18T13:52:00;26.20;;;12.40;;
43098;SDS011;28715;51.988;6.020;2022-12-18T13:54:34;23.08;;;13.25;;
43098;SDS011;28715;51.988;6.020;2022-12-18T13:57:02;24.00;;;12.88;;
43098;SDS011;28715;51.988;6.020;2022-12-18T13:59:37;26.58;;;13.98;;
43098;SDS011;28715;51.988;6.020;2022-12-18T14:02:13;24.80;;;14.68;;
43098;SDS011;28715;51.988;6.020;2022-12-18T14:04:44;23.00;;;13.32;;
43098;SDS011;28715;51.988;6.020;2022-12-18T14:07:15;22.40;;;13.85;;
43098;SDS011;28715;51.988;6.020;2022-12-18T14:09:44;25.58;;;14.50;;
43098;SDS011;28715;51.988;6.020;2022-12-18T14:12:17;26.92;;;15.77;;
43098;SDS011;28715;51.988;6.020;2022-12-18T14:17:55;28.92;;;15.32;;
43098;SDS011;28715;51.988;6.020;2022-12-18T14:20:31;23.35;;;13.88;;
43098;SDS011;28715;51.988;6.020;2022-12-18T14:22:58;22.38;;;13.50;;
43098;SDS011;28715;51.988;6.020;2022-12-18T14:25:26;25.55;;;14.60;;
43098;SDS011;28715;51.988;6.020;2022-12-18T14:27:57;25.73;;;15.13;;
43098;SDS011;28715;51.988;6.020;2022-12-18T14:30:42;26.45;;;15.40;;
43098;SDS011;28715;51.988;6.020;2022-12-18T14:33:14;27.98;;;15.80;;
43098;SDS011;28715;51.988;6.020;2022-12-18T14:35:55;30.50;;;16.88;;
43098;SDS011;28715;51.988;6.020;2022-12-18T14:40:58;28.25;;;16.30;;
43098;SDS011;28715;51.988;6.020;2022-12-18T14:43:26;25.58;;;14.90;;
43098;SDS011;28715;51.988;6.020;2022-12-18T14:45:53;26.90;;;14.75;;
43098;SDS011;28715;51.988;6.020;2022-12-18T14:48:20;25.38;;;14.02;;
43098;SDS011;28715;51.988;6.020;2022-12-18T14:51:03;30.00;;;15.60;;
43098;SDS011;28715;51.988;6.020;2022-12-18T14:53:36;28.40;;;13.95;;
43098;SDS011;28715;51.988;6.020;2022-12-18T14:56:17;30.10;;;16.15;;
43098;SDS011;28715;51.988;6.020;2022-12-18T14:58:48;28.92;;;16.45;;
43098;SDS011;28715;51.988;6.020;2022-12-18T15:01:20;28.25;;;15.95;;
43098;SDS011;28715;51.988;6.020;2022-12-18T15:03:49;29.35;;;14.90;;
43098;SDS011;28715;51.988;6.020;2022-12-18T15:08:51;28.23;;;15.85;;
43098;SDS011;28715;51.988;6.020;2022-12-18T15:11:27;29.67;;;15.27;;
43098;SDS011;28715;51.988;6.020;2022-12-18T15:14:50;29.85;;;15.10;;
43098;SDS011;28715;51.988;6.020;2022-12-18T15:17:05;25.27;;;13.10;;
43098;SDS011;28715;51.988;6.020;2022-12-18T15:19:45;26.58;;;15.18;;
43098;SDS011;28715;51.988;6.020;2022-12-18T15:24:46;28.98;;;15.98;;
43098;SDS011;28715;51.988;6.020;2022-12-18T15:32:33;28.33;;;15.10;;
43098;SDS011;28715;51.988;6.020;2022-12-18T15:37:34;28.58;;;14.55;;
43098;SDS011;28715;51.988;6.020;2022-12-18T15:39:59;30.03;;;15.37;;
43098;SDS011;28715;51.988;6.020;2022-12-18T15:42:25;30.00;;;16.50;;
43098;SDS011;28715;51.988;6.020;2022-12-18T15:45:12;27.73;;;15.55;;
43098;SDS011;28715;51.988;6.020;2022-12-18T15:50:05;30.80;;;16.30;;
43098;SDS011;28715;51.988;6.020;2022-12-18T15:52:32;31.27;;;17.05;;
43098;SDS011;28715;51.988;6.020;2022-12-18T15:55:05;33.15;;;17.92;;
43098;SDS011;28715;51.988;6.020;2022-12-18T15:57:53;31.40;;;16.05;;
43098;SDS011;28715;51.988;6.020;2022-12-18T16:00:19;28.80;;;15.67;;
43098;SDS011;28715;51.988;6.020;2022-12-18T16:02:44;32.33;;;16.43;;
43098;SDS011;28715;51.988;6.020;2022-12-18T16:05:14;32.97;;;17.63;;
43098;SDS011;28715;51.988;6.020;2022-12-18T16:07:42;30.50;;;16.70;;
43098;SDS011;28715;51.988;6.020;2022-12-18T16:10:08;29.98;;;16.10;;
43098;SDS011;28715;51.988;6.020;2022-12-18T16:12:34;32.25;;;17.67;;
43098;SDS011;28715;51.988;6.020;2022-12-18T16:15:00;33.05;;;15.90;;
43098;SDS011;28715;51.988;6.020;2022-12-18T16:17:25;30.77;;;16.93;;
43098;SDS011;28715;51.988;6.020;2022-12-18T16:19:51;33.37;;;17.33;;
43098;SDS011;28715;51.988;6.020;2022-12-18T16:22:27;30.50;;;17.10;;
43098;SDS011;28715;51.988;6.020;2022-12-18T16:24:54;33.10;;;17.25;;
43098;SDS011;28715;51.988;6.020;2022-12-18T16:27:20;32.92;;;17.65;;
43098;SDS011;28715;51.988;6.020;2022-12-18T16:29:47;33.60;;;16.73;;
43098;SDS011;28715;51.988;6.020;2022-12-18T16:32:14;30.67;;;17.33;;
43098;SDS011;28715;51.988;6.020;2022-12-18T16:37:09;34.50;;;17.90;;
43098;SDS011;28715;51.988;6.020;2022-12-18T16:39:36;35.58;;;19.45;;
43098;SDS011;28715;51.988;6.020;2022-12-18T16:42:06;37.85;;;19.33;;
43098;SDS011;28715;51.988;6.020;2022-12-18T16:44:39;35.97;;;18.42;;
43098;SDS011;28715;51.988;6.020;2022-12-18T16:47:05;34.75;;;18.80;;
43098;SDS011;28715;51.988;6.020;2022-12-18T16:49:31;35.70;;;19.23;;